createdAt,value
2023-03-31T00:00:40.144Z,999.50
2023-03-31T00:01:40.136Z,999.53
2023-03-31T00:02:40.205Z,999.46
2023-03-31T00:03:40.214Z,999.50
2023-03-31T00:04:40.134Z,999.53
2023-03-31T00:05:40.094Z,999.51
2023-03-31T00:06:40.102Z,999.47
2023-03-31T00:07:40.075Z,999.52
2023-03-31T00:08:40.102Z,999.46
2023-03-31T00:09:40.053Z,999.44
2023-03-31T00:10:40.036Z,999.48
2023-03-31T00:11:40.048Z,999.49
2023-03-31T00:12:40.051Z,999.49
2023-03-31T00:13:40.028Z,999.51
2023-03-31T00:14:40.021Z,999.45
2023-03-31T00:15:39.994Z,999.46
2023-03-31T00:16:40.022Z,999.42
2023-03-31T00:17:40.104Z,999.46
2023-03-31T00:18:39.969Z,999.39
2023-03-31T00:19:40.001Z,999.43
2023-03-31T00:20:39.943Z,999.41
2023-03-31T00:21:39.924Z,999.37
2023-03-31T00:22:39.932Z,999.40
2023-03-31T00:23:39.974Z,999.39
2023-03-31T00:24:39.882Z,999.38
2023-03-31T00:25:39.873Z,999.41
2023-03-31T00:26:39.871Z,999.33
2023-03-31T00:27:39.848Z,999.31
2023-03-31T00:28:39.853Z,999.36
2023-03-31T00:29:39.864Z,999.33
2023-03-31T00:30:39.863Z,999.35
2023-03-31T00:31:39.828Z,999.30
2023-03-31T00:32:39.857Z,999.30
2023-03-31T00:33:39.780Z,999.29
2023-03-31T00:34:39.796Z,999.24
2023-03-31T00:35:39.801Z,999.21
2023-03-31T00:36:39.757Z,999.27
2023-03-31T00:37:39.738Z,999.24
2023-03-31T00:38:39.736Z,999.30
2023-03-31T00:39:39.721Z,999.25
2023-03-31T00:40:39.722Z,999.29
2023-03-31T00:41:39.703Z,999.24
2023-03-31T00:42:39.701Z,999.23
2023-03-31T00:43:39.700Z,999.17
2023-03-31T00:44:39.679Z,999.19
2023-03-31T00:45:39.704Z,999.21
2023-03-31T00:46:39.672Z,999.17
2023-03-31T00:47:39.674Z,999.17
2023-03-31T00:48:39.635Z,999.20
2023-03-31T00:49:39.644Z,999.19
2023-03-31T00:50:39.623Z,999.16
2023-03-31T00:51:39.593Z,999.13
2023-03-31T00:52:39.582Z,999.14
2023-03-31T00:53:39.576Z,999.13
2023-03-31T00:54:39.578Z,999.08
2023-03-31T00:55:39.575Z,999.11
2023-03-31T00:56:39.623Z,999.11
2023-03-31T00:57:39.670Z,999.11
2023-03-31T00:58:39.524Z,999.07
2023-03-31T00:59:39.510Z,999.10
2023-03-31T01:00:39.495Z,999.11
2023-03-31T01:01:39.680Z,999.06
2023-03-31T01:02:39.538Z,999.07
2023-03-31T01:03:39.524Z,999.02
2023-03-31T01:04:39.455Z,999.07
2023-03-31T01:05:39.456Z,999.13
2023-03-31T01:06:39.457Z,998.99
2023-03-31T01:07:39.465Z,998.99
2023-03-31T01:08:39.413Z,998.96
2023-03-31T01:09:39.418Z,998.93
2023-03-31T01:10:39.412Z,998.94
2023-03-31T01:11:39.390Z,998.94
2023-03-31T01:12:39.399Z,998.87
2023-03-31T01:13:39.407Z,998.89
2023-03-31T01:14:39.380Z,998.87
2023-03-31T01:15:39.353Z,998.86
2023-03-31T01:16:39.438Z,998.84
2023-03-31T01:17:39.415Z,998.80
2023-03-31T01:18:39.377Z,998.78
2023-03-31T01:19:39.313Z,998.78
2023-03-31T01:20:39.338Z,998.76
2023-03-31T01:21:39.314Z,998.74
2023-03-31T01:22:39.275Z,998.75
2023-03-31T01:23:39.255Z,998.76
2023-03-31T01:24:39.263Z,998.71
2023-03-31T01:25:39.252Z,998.70
2023-03-31T01:26:39.240Z,998.71
2023-03-31T01:27:39.230Z,998.74
2023-03-31T01:28:39.216Z,998.70
2023-03-31T01:29:39.189Z,998.73
2023-03-31T01:30:39.186Z,998.72
2023-03-31T01:31:39.245Z,998.72
2023-03-31T01:32:39.238Z,998.67
2023-03-31T01:33:39.160Z,998.67
2023-03-31T01:34:39.158Z,998.65
2023-03-31T01:35:39.227Z,998.71
2023-03-31T01:36:48.658Z,998.73
2023-03-31T01:37:39.106Z,998.68
2023-03-31T01:38:39.109Z,998.64
2023-03-31T01:39:39.285Z,998.64
2023-03-31T01:40:39.086Z,998.65
2023-03-31T01:41:39.061Z,998.66
2023-03-31T01:42:39.045Z,998.66
2023-03-31T01:43:39.046Z,998.56
2023-03-31T01:44:39.036Z,998.55
2023-03-31T01:45:39.030Z,998.58
2023-03-31T01:46:39.025Z,998.55
2023-03-31T01:47:39.017Z,998.53
2023-03-31T01:48:38.998Z,998.53
2023-03-31T01:49:38.995Z,998.50
2023-03-31T01:50:38.986Z,998.51
2023-03-31T01:51:38.981Z,998.51
2023-03-31T01:52:38.952Z,998.46
2023-03-31T01:53:38.958Z,998.54
2023-03-31T01:54:38.918Z,998.50
2023-03-31T01:55:38.910Z,998.50
2023-03-31T01:56:38.916Z,998.49
2023-03-31T01:57:38.894Z,998.44
2023-03-31T01:58:38.882Z,998.48
2023-03-31T01:59:38.866Z,998.48
2023-03-31T02:00:38.858Z,998.45
2023-03-31T02:01:38.874Z,998.46
2023-03-31T02:02:38.938Z,998.42
2023-03-31T02:03:38.888Z,998.46
2023-03-31T02:04:38.806Z,998.40
2023-03-31T02:05:38.803Z,998.42
2023-03-31T02:06:38.831Z,998.40
2023-03-31T02:07:38.811Z,998.40
2023-03-31T02:08:38.791Z,998.43
2023-03-31T02:09:38.764Z,998.39
2023-03-31T02:10:38.768Z,998.35
2023-03-31T02:11:38.743Z,998.33
2023-03-31T02:12:38.883Z,998.39
2023-03-31T02:13:38.714Z,998.34
2023-03-31T02:14:38.714Z,998.33
2023-03-31T02:15:38.707Z,998.30
2023-03-31T02:16:38.719Z,998.30
2023-03-31T02:17:38.702Z,998.27
2023-03-31T02:18:38.661Z,998.26
2023-03-31T02:19:38.646Z,998.18
2023-03-31T02:20:38.662Z,998.22
2023-03-31T02:21:38.660Z,998.22
2023-03-31T02:22:38.661Z,998.18
2023-03-31T02:23:38.632Z,998.21
2023-03-31T02:24:38.632Z,998.20
2023-03-31T02:25:38.599Z,998.21
2023-03-31T02:26:38.581Z,998.22
2023-03-31T02:27:38.615Z,998.25
2023-03-31T02:28:38.594Z,998.21
2023-03-31T02:29:38.546Z,998.21
2023-03-31T02:30:38.543Z,998.16
2023-03-31T02:31:38.576Z,998.17
2023-03-31T02:32:38.598Z,998.14
2023-03-31T02:33:38.526Z,998.17
2023-03-31T02:34:38.509Z,998.16
2023-03-31T02:35:38.551Z,998.14
2023-03-31T02:36:38.591Z,998.12
2023-03-31T02:37:38.481Z,998.07
2023-03-31T02:38:38.485Z,998.11
2023-03-31T02:39:38.532Z,998.11
2023-03-31T02:40:38.440Z,998.07
2023-03-31T02:41:38.422Z,998.05
2023-03-31T02:42:38.430Z,998.03
2023-03-31T02:43:38.426Z,998.01
2023-03-31T02:44:38.410Z,998.03
2023-03-31T02:45:38.480Z,998.01
2023-03-31T02:46:38.389Z,997.97
2023-03-31T02:47:38.369Z,997.97
2023-03-31T02:48:38.403Z,997.98
2023-03-31T02:49:38.339Z,997.97
2023-03-31T02:50:38.341Z,997.96
2023-03-31T02:51:38.316Z,998.00
2023-03-31T02:52:38.293Z,997.95
2023-03-31T02:53:38.302Z,997.92
2023-03-31T02:54:38.371Z,997.96
2023-03-31T02:55:38.279Z,997.92
2023-03-31T02:56:38.274Z,997.88
2023-03-31T02:57:38.250Z,997.85
2023-03-31T02:58:38.233Z,997.82
2023-03-31T02:59:38.250Z,997.83
2023-03-31T03:00:38.219Z,997.80
2023-03-31T03:01:38.293Z,997.81
2023-03-31T03:02:38.337Z,997.76
2023-03-31T03:03:38.245Z,997.80
2023-03-31T03:04:38.185Z,997.80
2023-03-31T03:05:38.206Z,997.79
2023-03-31T03:06:38.183Z,997.78
2023-03-31T03:07:38.166Z,997.79
2023-03-31T03:08:38.161Z,997.75
2023-03-31T03:09:38.122Z,997.77
2023-03-31T03:10:38.132Z,997.76
2023-03-31T03:11:38.112Z,997.75
2023-03-31T03:12:38.134Z,997.73
2023-03-31T03:13:38.099Z,997.73
2023-03-31T03:14:38.078Z,997.75
2023-03-31T03:15:38.061Z,997.71
2023-03-31T03:16:38.070Z,997.72
2023-03-31T03:17:38.136Z,997.67
2023-03-31T03:18:38.028Z,997.66
2023-03-31T03:19:38.027Z,997.66
2023-03-31T03:20:38.001Z,997.72
2023-03-31T03:21:37.997Z,997.64
2023-03-31T03:22:38.005Z,997.64
2023-03-31T03:23:37.989Z,997.67
2023-03-31T03:24:37.978Z,997.63
2023-03-31T03:25:37.961Z,997.66
2023-03-31T03:26:37.959Z,997.61
2023-03-31T03:27:37.936Z,997.59
2023-03-31T03:28:37.946Z,997.61
2023-03-31T03:29:37.915Z,997.59
2023-03-31T03:30:37.913Z,997.56
2023-03-31T03:31:37.895Z,997.57
2023-03-31T03:32:37.926Z,997.55
2023-03-31T03:33:37.873Z,997.52
2023-03-31T03:34:37.867Z,997.56
2023-03-31T03:35:37.888Z,997.52
2023-03-31T03:36:37.906Z,997.49
2023-03-31T03:37:37.823Z,997.51
2023-03-31T03:38:37.811Z,997.51
2023-03-31T03:39:37.823Z,997.46
2023-03-31T03:40:37.794Z,997.47
2023-03-31T03:41:37.782Z,997.43
2023-03-31T03:42:37.783Z,997.42
2023-03-31T03:43:37.777Z,997.41
2023-03-31T03:44:37.771Z,997.41
2023-03-31T03:45:37.766Z,997.35
2023-03-31T03:46:37.761Z,997.37
2023-03-31T03:47:37.846Z,997.35
2023-03-31T03:48:37.735Z,997.35
2023-03-31T03:49:37.709Z,997.31
2023-03-31T03:50:37.687Z,997.32
2023-03-31T03:51:37.691Z,997.33
2023-03-31T03:52:37.691Z,997.31
2023-03-31T03:53:37.652Z,997.37
2023-03-31T03:54:37.678Z,997.32
2023-03-31T03:55:37.635Z,997.23
2023-03-31T03:56:37.620Z,997.30
2023-03-31T03:57:37.605Z,997.32
2023-03-31T03:58:37.619Z,997.27
2023-03-31T03:59:37.624Z,997.24
2023-03-31T04:00:37.582Z,997.22
2023-03-31T04:01:37.691Z,997.21
2023-03-31T04:02:37.807Z,997.25
2023-03-31T04:03:37.547Z,997.25
2023-03-31T04:04:37.578Z,997.20
2023-03-31T04:05:37.559Z,997.21
2023-03-31T04:06:37.509Z,997.16
2023-03-31T04:07:37.521Z,997.16
2023-03-31T04:08:37.494Z,997.14
2023-03-31T04:09:37.475Z,997.15
2023-03-31T04:10:37.473Z,997.13
2023-03-31T04:11:37.478Z,997.11
2023-03-31T04:12:37.458Z,997.14
2023-03-31T04:13:37.432Z,997.12
2023-03-31T04:14:37.445Z,997.13
2023-03-31T04:15:37.424Z,997.10
2023-03-31T04:16:37.475Z,997.10
2023-03-31T04:17:37.446Z,997.11
2023-03-31T04:18:37.383Z,997.04
2023-03-31T04:19:37.386Z,997.05
2023-03-31T04:20:37.354Z,997.03
2023-03-31T04:21:37.339Z,997.04
2023-03-31T04:22:37.339Z,997.09
2023-03-31T04:23:37.370Z,997.04
2023-03-31T04:24:37.348Z,997.09
2023-03-31T04:25:37.312Z,997.00
2023-03-31T04:26:37.289Z,996.98
2023-03-31T04:27:37.291Z,996.96
2023-03-31T04:28:37.287Z,996.99
2023-03-31T04:29:37.294Z,996.91
2023-03-31T04:30:37.284Z,996.95
2023-03-31T04:31:37.271Z,996.91
2023-03-31T04:32:37.257Z,996.93
2023-03-31T04:33:37.221Z,996.90
2023-03-31T04:34:37.221Z,996.90
2023-03-31T04:35:37.230Z,996.86
2023-03-31T04:36:37.182Z,996.84
2023-03-31T04:37:37.170Z,996.87
2023-03-31T04:38:37.173Z,996.83
2023-03-31T04:39:37.171Z,996.86
2023-03-31T04:40:37.146Z,996.84
2023-03-31T04:41:37.126Z,996.79
2023-03-31T04:42:37.126Z,996.82
2023-03-31T04:43:37.108Z,996.82
2023-03-31T04:44:37.141Z,996.80
2023-03-31T04:45:37.120Z,996.77
2023-03-31T04:46:37.106Z,996.76
2023-03-31T04:47:37.180Z,996.83
2023-03-31T04:48:37.074Z,996.70
2023-03-31T04:49:37.045Z,996.72
2023-03-31T04:50:37.038Z,996.67
2023-03-31T04:51:37.056Z,996.71
2023-03-31T04:52:37.010Z,996.71
2023-03-31T04:53:37.025Z,996.69
2023-03-31T04:54:36.984Z,996.74
2023-03-31T04:55:36.986Z,996.68
2023-03-31T04:56:36.977Z,996.68
2023-03-31T04:57:36.954Z,996.64
2023-03-31T04:58:36.948Z,996.63
2023-03-31T04:59:36.951Z,996.69
2023-03-31T05:00:36.937Z,996.57
2023-03-31T05:01:37.044Z,996.61
2023-03-31T05:02:36.960Z,996.56
2023-03-31T05:03:37.013Z,996.53
2023-03-31T05:04:36.918Z,996.52
2023-03-31T05:05:36.877Z,996.50
2023-03-31T05:06:36.875Z,996.47
2023-03-31T05:07:36.869Z,996.46
2023-03-31T05:08:36.839Z,996.50
2023-03-31T05:09:36.832Z,996.46
2023-03-31T05:10:36.836Z,996.49
2023-03-31T05:11:36.818Z,996.40
2023-03-31T05:12:36.813Z,996.37
2023-03-31T05:13:36.807Z,996.32
2023-03-31T05:14:36.802Z,996.31
2023-03-31T05:15:36.795Z,996.30
2023-03-31T05:16:36.912Z,996.28
2023-03-31T05:17:36.786Z,996.27
2023-03-31T05:18:36.762Z,996.28
2023-03-31T05:19:36.739Z,996.26
2023-03-31T05:20:36.753Z,996.33
2023-03-31T05:21:36.718Z,996.30
2023-03-31T05:22:36.737Z,996.30
2023-03-31T05:23:36.687Z,996.30
2023-03-31T05:24:36.678Z,996.35
2023-03-31T05:25:36.680Z,996.32
2023-03-31T05:26:36.664Z,996.32
2023-03-31T05:27:36.648Z,996.24
2023-03-31T05:28:36.644Z,996.31
2023-03-31T05:29:36.647Z,996.33
2023-03-31T05:30:36.621Z,996.27
2023-03-31T05:31:36.650Z,996.29
2023-03-31T05:32:36.786Z,996.27
2023-03-31T05:33:36.581Z,996.26
2023-03-31T05:34:36.588Z,996.21
2023-03-31T05:35:36.601Z,996.19
2023-03-31T05:36:36.550Z,996.15
2023-03-31T05:37:36.550Z,996.13
2023-03-31T05:38:36.526Z,996.12
2023-03-31T05:39:36.518Z,996.09
2023-03-31T05:40:36.500Z,996.10
2023-03-31T05:41:36.494Z,996.10
2023-03-31T05:42:36.491Z,996.04
2023-03-31T05:43:36.490Z,996.18
2023-03-31T05:44:36.455Z,996.13
2023-03-31T05:45:36.450Z,996.17
2023-03-31T05:46:36.508Z,996.07
2023-03-31T05:47:36.436Z,996.11
2023-03-31T05:48:36.436Z,996.06
2023-03-31T05:49:36.433Z,996.02
2023-03-31T05:50:36.410Z,996.03
2023-03-31T05:51:36.380Z,996.03
2023-03-31T05:52:36.369Z,996.02
2023-03-31T05:53:36.449Z,996.05
2023-03-31T05:54:36.363Z,996.09
2023-03-31T05:55:36.377Z,995.98
2023-03-31T05:56:36.326Z,995.94
2023-03-31T05:57:36.323Z,995.94
2023-03-31T05:58:36.394Z,995.89
2023-03-31T05:59:36.335Z,995.92
2023-03-31T06:00:36.320Z,995.90
2023-03-31T06:01:36.339Z,995.86
2023-03-31T06:02:36.315Z,995.86
2023-03-31T06:03:36.304Z,995.86
2023-03-31T06:04:36.365Z,995.87
2023-03-31T06:05:36.235Z,995.85
2023-03-31T06:06:37.713Z,995.88
2023-03-31T06:07:36.250Z,995.87
2023-03-31T06:08:36.207Z,995.89
2023-03-31T06:09:36.209Z,995.87
2023-03-31T06:10:36.203Z,995.86
2023-03-31T06:11:36.186Z,995.88
2023-03-31T06:12:36.156Z,995.81
2023-03-31T06:13:36.144Z,995.78
2023-03-31T06:14:36.164Z,995.69
2023-03-31T06:15:36.134Z,995.71
2023-03-31T06:16:36.159Z,995.69
2023-03-31T06:17:38.360Z,995.68
2023-03-31T06:18:36.095Z,995.68
2023-03-31T06:19:36.080Z,995.66
2023-03-31T06:20:36.119Z,995.65
2023-03-31T06:21:36.062Z,995.66
2023-03-31T06:22:36.077Z,995.62
2023-03-31T06:23:36.048Z,995.59
2023-03-31T06:24:36.033Z,995.60
2023-03-31T06:25:49.869Z,995.58
2023-03-31T06:26:37.014Z,995.58
2023-03-31T06:27:36.031Z,995.53
2023-03-31T06:28:35.978Z,995.52
2023-03-31T06:29:35.962Z,995.57
2023-03-31T06:30:35.953Z,995.52
2023-03-31T06:31:36.096Z,995.54
2023-03-31T06:32:36.009Z,995.50
2023-03-31T06:33:35.946Z,995.50
2023-03-31T06:34:35.926Z,995.49
2023-03-31T06:35:35.940Z,995.46
2023-03-31T06:36:35.889Z,995.45
2023-03-31T06:37:35.894Z,995.47
2023-03-31T06:38:35.900Z,995.47
2023-03-31T06:39:35.900Z,995.44
2023-03-31T06:40:35.870Z,995.45
2023-03-31T06:41:35.913Z,995.45
2023-03-31T06:42:35.870Z,995.47
2023-03-31T06:43:35.853Z,995.46
2023-03-31T06:44:35.832Z,995.51
2023-03-31T06:45:35.828Z,995.49
2023-03-31T06:46:35.854Z,995.48
2023-03-31T06:47:35.812Z,995.48
2023-03-31T06:48:35.765Z,995.47
2023-03-31T06:49:35.758Z,995.47
2023-03-31T06:50:35.745Z,995.43
2023-03-31T06:51:35.747Z,995.44
2023-03-31T06:52:35.727Z,995.43
2023-03-31T06:53:36.618Z,995.40
2023-03-31T06:54:38.207Z,995.38
2023-03-31T06:55:35.713Z,995.43
2023-03-31T06:56:36.204Z,995.34
2023-03-31T06:57:35.676Z,995.38
2023-03-31T06:58:35.744Z,995.39
2023-03-31T06:59:35.735Z,995.33
2023-03-31T07:00:36.200Z,995.32
2023-03-31T07:01:36.403Z,995.28
2023-03-31T07:02:35.829Z,995.28
2023-03-31T07:03:35.819Z,995.32
2023-03-31T07:04:35.596Z,995.37
2023-03-31T07:05:35.589Z,995.39
2023-03-31T07:06:35.590Z,995.37
2023-03-31T07:07:35.585Z,995.35
2023-03-31T07:08:35.564Z,995.28
2023-03-31T07:09:35.524Z,995.31
2023-03-31T07:10:35.545Z,995.21
2023-03-31T07:11:36.344Z,995.25
2023-03-31T07:12:35.681Z,995.21
2023-03-31T07:13:36.641Z,995.30
2023-03-31T07:14:35.482Z,995.27
2023-03-31T07:15:35.461Z,995.24
2023-03-31T07:16:35.489Z,995.25
2023-03-31T07:17:35.596Z,995.20
2023-03-31T07:18:35.687Z,995.13
2023-03-31T07:19:36.209Z,995.10
2023-03-31T07:20:35.471Z,995.06
2023-03-31T07:21:35.443Z,995.01
2023-03-31T07:22:35.422Z,995.04
2023-03-31T07:23:35.466Z,995.01
2023-03-31T07:24:35.392Z,995.05
2023-03-31T07:25:35.384Z,995.08
2023-03-31T07:26:35.434Z,995.06
2023-03-31T07:27:35.340Z,995.12
2023-03-31T07:28:35.394Z,995.09
2023-03-31T07:29:35.365Z,995.07
2023-03-31T07:30:35.315Z,995.08
2023-03-31T07:31:35.398Z,995.05
2023-03-31T07:32:37.913Z,995.06
2023-03-31T07:33:35.513Z,995.09
2023-03-31T07:34:37.531Z,995.05
2023-03-31T07:35:35.331Z,995.05
2023-03-31T07:36:35.264Z,995.07
2023-03-31T07:37:35.264Z,995.10
2023-03-31T07:38:35.214Z,995.05
2023-03-31T07:39:35.247Z,995.00
2023-03-31T07:40:35.225Z,994.93
2023-03-31T07:41:35.280Z,994.97
2023-03-31T07:42:35.202Z,994.98
2023-03-31T07:43:36.251Z,994.96
2023-03-31T07:44:35.358Z,994.91
2023-03-31T07:45:35.258Z,994.93
2023-03-31T07:46:35.162Z,994.94
2023-03-31T07:47:35.151Z,994.98
2023-03-31T07:48:35.117Z,994.88
2023-03-31T07:49:35.114Z,994.91
2023-03-31T07:50:35.102Z,994.91
2023-03-31T07:51:35.079Z,994.94
2023-03-31T07:52:35.095Z,994.90
2023-03-31T07:53:35.068Z,994.79
2023-03-31T07:54:35.041Z,994.89
2023-03-31T07:55:35.036Z,994.88
2023-03-31T07:56:35.029Z,994.85
2023-03-31T07:57:35.045Z,994.88
2023-03-31T07:58:35.040Z,994.83
2023-03-31T07:59:34.996Z,994.82
2023-03-31T08:00:34.978Z,994.85
2023-03-31T08:01:35.011Z,994.82
2023-03-31T08:02:35.024Z,994.74
2023-03-31T08:03:35.042Z,994.76
2023-03-31T08:04:35.005Z,994.71
2023-03-31T08:05:34.935Z,994.69
2023-03-31T08:06:34.932Z,994.75
2023-03-31T08:07:34.949Z,994.64
2023-03-31T08:08:34.899Z,994.67
2023-03-31T08:09:34.879Z,994.63
2023-03-31T08:10:34.883Z,994.66
2023-03-31T08:11:34.861Z,994.58
2023-03-31T08:12:34.841Z,994.60
2023-03-31T08:13:34.843Z,994.55
2023-03-31T08:14:40.522Z,994.56
2023-03-31T08:15:35.827Z,994.59
2023-03-31T08:16:34.817Z,994.58
2023-03-31T08:17:34.845Z,994.55
2023-03-31T08:18:34.780Z,994.56
2023-03-31T08:19:34.777Z,994.54
2023-03-31T08:20:34.751Z,994.56
2023-03-31T08:21:34.753Z,994.51
2023-03-31T08:22:34.738Z,994.51
2023-03-31T08:23:34.753Z,994.52
2023-03-31T08:24:34.737Z,994.45
2023-03-31T08:25:34.693Z,994.51
2023-03-31T08:26:34.683Z,994.49
2023-03-31T08:27:34.692Z,994.51
2023-03-31T08:28:34.667Z,994.50
2023-03-31T08:29:34.650Z,994.52
2023-03-31T08:30:34.694Z,994.52
2023-03-31T08:31:34.723Z,994.47
2023-03-31T08:32:34.734Z,994.56
2023-03-31T08:33:34.654Z,994.48
2023-03-31T08:34:34.609Z,994.50
2023-03-31T08:35:34.610Z,994.50
2023-03-31T08:36:34.579Z,994.35
2023-03-31T08:37:34.572Z,994.41
2023-03-31T08:38:34.564Z,994.39
2023-03-31T08:39:34.588Z,994.34
2023-03-31T08:40:34.555Z,994.27
2023-03-31T08:41:34.540Z,994.26
2023-03-31T08:42:34.527Z,994.29
2023-03-31T08:43:34.515Z,994.30
2023-03-31T08:44:34.512Z,994.25
2023-03-31T08:45:34.580Z,994.22
2023-03-31T08:46:34.608Z,994.17
2023-03-31T08:47:34.534Z,994.12
2023-03-31T08:48:34.454Z,994.17
2023-03-31T08:49:34.452Z,994.17
2023-03-31T08:50:34.443Z,994.08
2023-03-31T08:51:34.421Z,994.01
2023-03-31T08:52:34.425Z,994.08
2023-03-31T08:53:34.402Z,994.06
2023-03-31T08:54:34.431Z,994.05
2023-03-31T08:55:34.444Z,994.18
2023-03-31T08:56:34.369Z,994.07
2023-03-31T08:57:34.391Z,994.03
2023-03-31T08:58:34.338Z,994.19
2023-03-31T08:59:34.341Z,994.13
2023-03-31T09:00:34.323Z,994.09
2023-03-31T09:01:47.928Z,994.27
2023-03-31T09:02:35.565Z,994.00
2023-03-31T09:03:34.423Z,994.01
2023-03-31T09:04:34.290Z,994.00
2023-03-31T09:05:34.283Z,994.03
2023-03-31T09:06:34.287Z,994.03
2023-03-31T09:07:34.268Z,993.92
2023-03-31T09:08:34.234Z,993.91
2023-03-31T09:09:34.227Z,993.93
2023-03-31T09:10:34.213Z,994.07
2023-03-31T09:11:34.216Z,994.15
2023-03-31T09:12:34.231Z,994.10
2023-03-31T09:13:34.180Z,993.92
2023-03-31T09:14:34.177Z,994.12
2023-03-31T09:15:34.166Z,994.06
2023-03-31T09:16:34.197Z,994.21
2023-03-31T09:17:34.219Z,994.23
2023-03-31T09:18:34.190Z,994.20
2023-03-31T09:19:34.151Z,994.28
2023-03-31T09:20:34.142Z,994.21
2023-03-31T09:21:34.103Z,994.12
2023-03-31T09:22:34.080Z,994.06
2023-03-31T09:23:34.096Z,994.04
2023-03-31T09:24:34.129Z,993.92
2023-03-31T09:25:34.071Z,993.83
2023-03-31T09:26:34.052Z,993.85
2023-03-31T09:27:34.044Z,993.77
2023-03-31T09:28:34.032Z,993.98
2023-03-31T09:29:34.028Z,993.84
2023-03-31T09:30:34.005Z,993.85
2023-03-31T09:31:34.050Z,993.77
2023-03-31T09:32:34.022Z,993.72
2023-03-31T09:33:33.993Z,993.56
2023-03-31T09:34:33.995Z,993.58
2023-03-31T09:35:34.027Z,993.55
2023-03-31T09:36:33.950Z,993.53
2023-03-31T09:37:33.944Z,993.64
2023-03-31T09:38:33.952Z,993.57
2023-03-31T09:39:33.918Z,993.57
2023-03-31T09:40:33.901Z,993.42
2023-03-31T09:41:34.373Z,993.45
2023-03-31T09:42:33.887Z,993.44
2023-03-31T09:43:33.879Z,993.50
2023-03-31T09:44:33.953Z,993.43
2023-03-31T09:45:33.849Z,993.56
2023-03-31T09:46:33.886Z,993.77
2023-03-31T09:47:33.930Z,993.38
2023-03-31T09:48:33.826Z,993.32
2023-03-31T09:49:33.807Z,993.27
2023-03-31T09:50:33.837Z,993.26
2023-03-31T09:51:33.791Z,993.32
2023-03-31T09:52:33.790Z,993.22
2023-03-31T09:53:33.772Z,993.21
2023-03-31T09:54:33.797Z,993.21
2023-03-31T09:55:39.989Z,993.14
2023-03-31T09:56:34.729Z,993.17
2023-03-31T09:57:34.373Z,993.16
2023-03-31T09:58:33.709Z,993.09
2023-03-31T09:59:33.716Z,993.07
2023-03-31T10:00:33.701Z,993.12
2023-03-31T10:01:33.776Z,993.21
2023-03-31T10:02:33.703Z,993.08
2023-03-31T10:03:33.679Z,993.08
2023-03-31T10:04:33.814Z,993.01
2023-03-31T10:05:33.639Z,992.99
2023-03-31T10:06:33.660Z,992.99
2023-03-31T10:07:33.627Z,993.06
2023-03-31T10:08:33.603Z,993.03
2023-03-31T10:09:33.636Z,993.01
2023-03-31T10:10:33.626Z,992.96
2023-03-31T10:11:33.591Z,993.00
2023-03-31T10:12:33.562Z,993.00
2023-03-31T10:13:33.569Z,993.12
2023-03-31T10:14:33.545Z,992.94
2023-03-31T10:15:33.541Z,992.96
2023-03-31T10:16:33.713Z,992.95
2023-03-31T10:17:43.565Z,992.92
2023-03-31T10:18:34.625Z,992.88
2023-03-31T10:19:33.495Z,992.90
2023-03-31T10:20:33.537Z,992.88
2023-03-31T10:21:33.489Z,992.92
2023-03-31T10:22:33.482Z,992.90
2023-03-31T10:23:33.449Z,992.85
2023-03-31T10:24:33.437Z,992.79
2023-03-31T10:25:33.430Z,992.72
2023-03-31T10:26:33.444Z,992.82
2023-03-31T10:27:33.404Z,992.80
2023-03-31T10:28:33.399Z,992.77
2023-03-31T10:29:33.375Z,992.74
2023-03-31T10:30:33.372Z,992.76
2023-03-31T10:31:33.457Z,992.74
2023-03-31T10:32:33.563Z,992.77
2023-03-31T10:33:33.347Z,992.68
2023-03-31T10:34:33.332Z,992.79
2023-03-31T10:35:33.373Z,992.72
2023-03-31T10:36:33.320Z,992.69
2023-03-31T10:37:33.292Z,992.69
2023-03-31T10:38:33.537Z,992.68
2023-03-31T10:39:33.263Z,992.65
2023-03-31T10:40:33.287Z,992.65
2023-03-31T10:41:33.513Z,992.60
2023-03-31T10:42:33.283Z,992.64
2023-03-31T10:43:33.244Z,992.71
2023-03-31T10:44:33.212Z,992.60
2023-03-31T10:45:37.929Z,992.64
2023-03-31T10:46:33.241Z,992.66
2023-03-31T10:47:33.224Z,992.62
2023-03-31T10:48:33.179Z,992.61
2023-03-31T10:49:33.166Z,992.52
2023-03-31T10:50:33.157Z,992.69
2023-03-31T10:51:33.133Z,992.65
2023-03-31T10:52:33.133Z,992.60
2023-03-31T10:53:33.121Z,992.62
2023-03-31T10:54:33.173Z,992.56
2023-03-31T10:55:33.098Z,992.58
2023-03-31T10:56:33.087Z,992.54
2023-03-31T10:57:33.088Z,992.57
2023-03-31T10:58:33.054Z,992.59
2023-03-31T10:59:33.073Z,992.53
2023-03-31T11:00:33.047Z,992.57
2023-03-31T11:01:33.043Z,992.53
2023-03-31T11:02:33.113Z,992.43
2023-03-31T11:03:33.145Z,992.49
2023-03-31T11:04:33.010Z,992.49
2023-03-31T11:05:33.007Z,992.43
2023-03-31T11:06:32.983Z,992.46
2023-03-31T11:07:32.967Z,992.42
2023-03-31T11:08:32.964Z,992.42
2023-03-31T11:09:32.938Z,992.43
2023-03-31T11:10:32.967Z,992.41
2023-03-31T11:11:32.937Z,992.36
2023-03-31T11:12:32.913Z,992.43
2023-03-31T11:13:32.902Z,992.42
2023-03-31T11:14:32.912Z,992.43
2023-03-31T11:15:32.939Z,992.27
2023-03-31T11:16:32.951Z,992.26
2023-03-31T11:17:32.892Z,992.25
2023-03-31T11:18:32.868Z,992.23
2023-03-31T11:19:32.840Z,992.28
2023-03-31T11:20:32.836Z,992.26
2023-03-31T11:21:32.810Z,992.20
2023-03-31T11:22:32.809Z,992.20
2023-03-31T11:23:32.801Z,992.10
2023-03-31T11:24:32.823Z,992.13
2023-03-31T11:25:32.786Z,992.09
2023-03-31T11:26:32.816Z,992.10
2023-03-31T11:27:32.764Z,992.09
2023-03-31T11:28:32.733Z,992.02
2023-03-31T11:29:32.726Z,992.07
2023-03-31T11:30:32.720Z,992.02
2023-03-31T11:31:32.749Z,991.96
2023-03-31T11:32:32.697Z,991.92
2023-03-31T11:33:32.679Z,991.92
2023-03-31T11:34:32.688Z,991.87
2023-03-31T11:35:32.654Z,991.84
2023-03-31T11:36:32.682Z,991.82
2023-03-31T11:37:32.647Z,991.76
2023-03-31T11:38:32.636Z,991.75
2023-03-31T11:39:32.624Z,991.71
2023-03-31T11:40:32.624Z,991.69
2023-03-31T11:41:32.590Z,991.70
2023-03-31T11:42:32.633Z,991.74
2023-03-31T11:43:32.587Z,991.67
2023-03-31T11:44:32.571Z,991.67
2023-03-31T11:45:32.565Z,991.71
2023-03-31T11:46:32.616Z,991.72
2023-03-31T11:47:32.585Z,991.79
2023-03-31T11:48:32.531Z,991.74
2023-03-31T11:49:32.509Z,991.65
2023-03-31T11:50:32.503Z,991.64
2023-03-31T11:51:32.484Z,991.61
2023-03-31T11:52:32.499Z,991.60
2023-03-31T11:53:32.471Z,991.58
2023-03-31T11:54:32.476Z,991.58
2023-03-31T11:55:32.559Z,991.52
2023-03-31T11:56:32.437Z,991.51
2023-03-31T11:57:32.498Z,991.50
2023-03-31T11:58:32.432Z,991.50
2023-03-31T11:59:32.428Z,991.41
2023-03-31T12:00:32.402Z,991.45
2023-03-31T12:01:32.426Z,991.35
2023-03-31T12:02:32.426Z,991.42
2023-03-31T12:03:32.387Z,991.43
2023-03-31T12:04:32.348Z,991.41
2023-03-31T12:05:32.436Z,991.49
2023-03-31T12:06:32.347Z,991.45
2023-03-31T12:07:32.346Z,991.37
2023-03-31T12:08:32.342Z,991.38
2023-03-31T12:09:32.307Z,991.32
2023-03-31T12:10:32.279Z,991.42
2023-03-31T12:11:32.281Z,991.37
2023-03-31T12:12:32.317Z,991.38
2023-03-31T12:13:32.257Z,991.36
2023-03-31T12:14:32.370Z,991.32
2023-03-31T12:15:32.273Z,991.34
2023-03-31T12:16:32.227Z,991.29
2023-03-31T12:17:32.251Z,991.27
2023-03-31T12:18:32.192Z,991.27
2023-03-31T12:19:32.201Z,991.18
2023-03-31T12:20:32.177Z,991.18
2023-03-31T12:21:32.166Z,991.27
2023-03-31T12:22:32.151Z,991.14
2023-03-31T12:23:32.160Z,991.22
2023-03-31T12:24:32.293Z,991.12
2023-03-31T12:25:32.123Z,991.10
2023-03-31T12:26:32.126Z,991.15
2023-03-31T12:27:32.102Z,991.10
2023-03-31T12:28:32.115Z,991.12